sensor_id;sensor_type;location;lat;lon;timestamp;pressure;altitude;pressure_sealevel;temperature;humidity
39897;BME280;25567;48.276;14.242;2022-09-09T00:00:41;98272.09;;;12.40;100.00
39897;BME280;25567;48.276;14.242;2022-09-09T00:03:17;98267.69;;;12.28;100.00
39897;BME280;25567;48.276;14.242;2022-09-09T00:08:54;98262.06;;;12.25;100.00
39897;BME280;25567;48.276;14.242;2022-09-09T00:11:33;98259.81;;;12.16;100.00
39897;BME280;25567;48.276;14.242;2022-09-09T00:14:11;98263.44;;;12.10;100.00
39897;BME280;25567;48.276;14.242;2022-09-09T00:16:42;98264.22;;;11.94;100.00
39897;BME280;25567;48.276;14.242;2022-09-09T00:19:20;98270.34;;;11.94;100.00
39897;BME280;25567;48.276;14.242;2022-09-09T00:24:27;98273.66;;;11.84;100.00
39897;BME280;25567;48.276;14.242;2022-09-09T00:27:01;98271.69;;;11.80;100.00
39897;BME280;25567;48.276;14.242;2022-09-09T00:29:43;98273.88;;;11.66;100.00
39897;BME280;25567;48.276;14.242;2022-09-09T00:32:15;98269.84;;;11.63;100.00
39897;BME280;25567;48.276;14.242;2022-09-09T00:34:52;98269.34;;;11.66;100.00
39897;BME280;25567;48.276;14.242;2022-09-09T00:37:21;98284.16;;;11.62;100.00
39897;BME280;25567;48.276;14.242;2022-09-09T00:39:49;98278.31;;;11.48;100.00
39897;BME280;25567;48.276;14.242;2022-09-09T00:42:24;98278.03;;;11.45;100.00
39897;BME280;25567;48.276;14.242;2022-09-09T00:50:21;98285.94;;;11.57;100.00
39897;BME280;25567;48.276;14.242;2022-09-09T00:56:05;98278.38;;;11.65;100.00
39897;BME280;25567;48.276;14.242;2022-09-09T00:58:34;98282.56;;;11.78;100.00
39897;BME280;25567;48.276;14.242;2022-09-09T01:01:07;98282.41;;;11.85;100.00
39897;BME280;25567;48.276;14.242;2022-09-09T01:03:52;98279.84;;;11.90;100.00
39897;BME280;25567;48.276;14.242;2022-09-09T01:06:30;98277.38;;;12.00;100.00
39897;BME280;25567;48.276;14.242;2022-09-09T01:14:30;98279.38;;;12.10;100.00
39897;BME280;25567;48.276;14.242;2022-09-09T01:19:40;98286.78;;;11.91;100.00
39897;BME280;25567;48.276;14.242;2022-09-09T01:25:06;98282.16;;;11.87;100.00
39897;BME280;25567;48.276;14.242;2022-09-09T01:27:42;98288.06;;;11.89;100.00
39897;BME280;25567;48.276;14.242;2022-09-09T01:30:13;98293.13;;;11.90;100.00
39897;BME280;25567;48.276;14.242;2022-09-09T01:32:43;98291.28;;;11.91;100.00
39897;BME280;25567;48.276;14.242;2022-09-09T01:35:19;98285.16;;;11.90;100.00
39897;BME280;25567;48.276;14.242;2022-09-09T01:37:50;98287.25;;;11.88;100.00
39897;BME280;25567;48.276;14.242;2022-09-09T01:40:17;98287.03;;;11.90;100.00
39897;BME280;25567;48.276;14.242;2022-09-09T01:42:44;98284.66;;;11.93;100.00
39897;BME280;25567;48.276;14.242;2022-09-09T01:45:10;98284.88;;;12.04;100.00
39897;BME280;25567;48.276;14.242;2022-09-09T01:47:37;98283.00;;;12.04;100.00
39897;BME280;25567;48.276;14.242;2022-09-09T01:50:04;98284.38;;;12.07;100.00
39897;BME280;25567;48.276;14.242;2022-09-09T01:52:39;98288.31;;;12.04;100.00
39897;BME280;25567;48.276;14.242;2022-09-09T01:55:07;98295.50;;;12.04;100.00
39897;BME280;25567;48.276;14.242;2022-09-09T01:57:41;98291.63;;;12.11;100.00
39897;BME280;25567;48.276;14.242;2022-09-09T02:00:14;98286.06;;;12.13;100.00
39897;BME280;25567;48.276;14.242;2022-09-09T02:05:30;98287.91;;;12.29;100.00
39897;BME280;25567;48.276;14.242;2022-09-09T02:08:18;98290.97;;;12.38;100.00
39897;BME280;25567;48.276;14.242;2022-09-09T02:10:55;98285.81;;;12.31;100.00
39897;BME280;25567;48.276;14.242;2022-09-09T02:13:25;98291.72;;;12.33;100.00
39897;BME280;25567;48.276;14.242;2022-09-09T02:15:56;98287.59;;;12.26;100.00
39897;BME280;25567;48.276;14.242;2022-09-09T02:18:32;98290.91;;;12.16;100.00
39897;BME280;25567;48.276;14.242;2022-09-09T02:21:05;98279.31;;;12.05;100.00
39897;BME280;25567;48.276;14.242;2022-09-09T02:23:34;98274.72;;;12.00;100.00
39897;BME280;25567;48.276;14.242;2022-09-09T02:26:02;98267.22;;;11.97;100.00
39897;BME280;25567;48.276;14.242;2022-09-09T02:28:33;98274.66;;;11.95;100.00
39897;BME280;25567;48.276;14.242;2022-09-09T02:31:01;98267.22;;;11.97;100.00
39897;BME280;25567;48.276;14.242;2022-09-09T02:33:34;98272.00;;;11.95;100.00
39897;BME280;25567;48.276;14.242;2022-09-09T02:36:03;98272.13;;;11.89;100.00
39897;BME280;25567;48.276;14.242;2022-09-09T02:38:37;98266.47;;;11.85;100.00
39897;BME280;25567;48.276;14.242;2022-09-09T02:41:07;98259.03;;;11.99;100.00
39897;BME280;25567;48.276;14.242;2022-09-09T02:43:34;98264.72;;;12.08;100.00
39897;BME280;25567;48.276;14.242;2022-09-09T02:48:47;98269.47;;;12.23;100.00
39897;BME280;25567;48.276;14.242;2022-09-09T02:51:24;98265.03;;;12.28;100.00
39897;BME280;25567;48.276;14.242;2022-09-09T02:53:57;98264.22;;;12.28;100.00
39897;BME280;25567;48.276;14.242;2022-09-09T02:56:27;98264.78;;;12.30;100.00
39897;BME280;25567;48.276;14.242;2022-09-09T02:58:56;98266.63;;;12.29;100.00
39897;BME280;25567;48.276;14.242;2022-09-09T03:01:23;98263.97;;;12.29;100.00
39897;BME280;25567;48.276;14.242;2022-09-09T03:03:49;98260.50;;;12.29;100.00
39897;BME280;25567;48.276;14.242;2022-09-09T03:06:16;98264.09;;;12.17;100.00
39897;BME280;25567;48.276;14.242;2022-09-09T03:08:43;98258.88;;;12.06;100.00
39897;BME280;25567;48.276;14.242;2022-09-09T03:11:16;98264.84;;;11.84;100.00
39897;BME280;25567;48.276;14.242;2022-09-09T03:13:43;98271.69;;;11.80;100.00
39897;BME280;25567;48.276;14.242;2022-09-09T03:16:09;98284.66;;;11.76;100.00
39897;BME280;25567;48.276;14.242;2022-09-09T03:18:36;98284.19;;;11.79;100.00
39897;BME280;25567;48.276;14.242;2022-09-09T03:21:03;98281.53;;;11.79;100.00
39897;BME280;25567;48.276;14.242;2022-09-09T03:23:29;98282.66;;;11.83;100.00
39897;BME280;25567;48.276;14.242;2022-09-09T03:25:56;98286.59;;;11.81;100.00
39897;BME280;25567;48.276;14.242;2022-09-09T03:28:25;98280.97;;;11.77;100.00
39897;BME280;25567;48.276;14.242;2022-09-09T03:30:59;98273.56;;;11.79;100.00
39897;BME280;25567;48.276;14.242;2022-09-09T03:33:26;98275.97;;;11.81;100.00
39897;BME280;25567;48.276;14.242;2022-09-09T03:35:54;98271.16;;;11.78;100.00
39897;BME280;25567;48.276;14.242;2022-09-09T03:38:23;98271.63;;;11.75;100.00
39897;BME280;25567;48.276;14.242;2022-09-09T03:40:51;98273.41;;;11.86;100.00
39897;BME280;25567;48.276;14.242;2022-09-09T03:43:22;98279.28;;;11.88;100.00
39897;BME280;25567;48.276;14.242;2022-09-09T03:45:50;98277.00;;;11.80;100.00
39897;BME280;25567;48.276;14.242;2022-09-09T03:48:17;98275.63;;;11.77;100.00
39897;BME280;25567;48.276;14.242;2022-09-09T03:50:49;98275.00;;;11.70;100.00
39897;BME280;25567;48.276;14.242;2022-09-09T03:53:18;98280.56;;;11.68;100.00
39897;BME280;25567;48.276;14.242;2022-09-09T03:55:46;98276.19;;;11.62;100.00
39897;BME280;25567;48.276;14.242;2022-09-09T03:58:14;98279.00;;;11.56;100.00
39897;BME280;25567;48.276;14.242;2022-09-09T04:00:42;98279.56;;;11.58;100.00
39897;BME280;25567;48.276;14.242;2022-09-09T04:03:11;98282.44;;;11.56;100.00
39897;BME280;25567;48.276;14.242;2022-09-09T04:05:39;98277.97;;;11.57;100.00
39897;BME280;25567;48.276;14.242;2022-09-09T04:08:08;98281.66;;;11.56;100.00
39897;BME280;25567;48.276;14.242;2022-09-09T04:10:35;98269.69;;;11.70;100.00
39897;BME280;25567;48.276;14.242;2022-09-09T04:13:04;98273.13;;;11.71;100.00
39897;BME280;25567;48.276;14.242;2022-09-09T04:15:31;98272.59;;;11.68;100.00
39897;BME280;25567;48.276;14.242;2022-09-09T04:17:58;98272.00;;;11.66;100.00
39897;BME280;25567;48.276;14.242;2022-09-09T04:20:25;98277.09;;;11.68;100.00
39897;BME280;25567;48.276;14.242;2022-09-09T04:22:51;98285.28;;;11.66;100.00
39897;BME280;25567;48.276;14.242;2022-09-09T04:25:18;98286.25;;;11.60;100.00
39897;BME280;25567;48.276;14.242;2022-09-09T04:27:44;98285.09;;;11.56;100.00
39897;BME280;25567;48.276;14.242;2022-09-09T04:30:11;98288.00;;;11.55;100.00
39897;BME280;25567;48.276;14.242;2022-09-09T04:32:38;98281.22;;;11.47;100.00
39897;BME280;25567;48.276;14.242;2022-09-09T04:35:05;98271.59;;;11.58;100.00
39897;BME280;25567;48.276;14.242;2022-09-09T04:37:32;98277.56;;;11.65;100.00
39897;BME280;25567;48.276;14.242;2022-09-09T04:39:59;98272.53;;;11.80;100.00
39897;BME280;25567;48.276;14.242;2022-09-09T04:42:28;98270.03;;;11.74;100.00
39897;BME280;25567;48.276;14.242;2022-09-09T04:44:55;98277.16;;;11.73;100.00
39897;BME280;25567;48.276;14.242;2022-09-09T04:47:21;98288.19;;;11.65;100.00
39897;BME280;25567;48.276;14.242;2022-09-09T04:49:48;98280.72;;;11.62;100.00
39897;BME280;25567;48.276;14.242;2022-09-09T04:52:15;98273.19;;;11.59;100.00
39897;BME280;25567;48.276;14.242;2022-09-09T04:54:43;98272.00;;;11.66;100.00
39897;BME280;25567;48.276;14.242;2022-09-09T04:57:12;98279.28;;;11.71;100.00
39897;BME280;25567;48.276;14.242;2022-09-09T04:59:44;98281.78;;;11.78;100.00
39897;BME280;25567;48.276;14.242;2022-09-09T05:02:11;98279.34;;;11.76;100.00
39897;BME280;25567;48.276;14.242;2022-09-09T05:04:38;98277.91;;;11.85;100.00
39897;BME280;25567;48.276;14.242;2022-09-09T05:07:05;98269.22;;;11.90;100.00
39897;BME280;25567;48.276;14.242;2022-09-09T05:09:33;98283.16;;;11.97;100.00
39897;BME280;25567;48.276;14.242;2022-09-09T05:11:59;98286.41;;;11.99;100.00
39897;BME280;25567;48.276;14.242;2022-09-09T05:14:26;98299.56;;;11.94;100.00
39897;BME280;25567;48.276;14.242;2022-09-09T05:16:53;98297.41;;;11.91;100.00
39897;BME280;25567;48.276;14.242;2022-09-09T05:19:20;98300.31;;;11.90;100.00
39897;BME280;25567;48.276;14.242;2022-09-09T05:21:46;98300.78;;;11.87;100.00
39897;BME280;25567;48.276;14.242;2022-09-09T05:24:13;98301.50;;;11.82;100.00
39897;BME280;25567;48.276;14.242;2022-09-09T05:26:39;98299.88;;;11.81;100.00
39897;BME280;25567;48.276;14.242;2022-09-09T05:29:06;98302.22;;;11.77;100.00
39897;BME280;25567;48.276;14.242;2022-09-09T05:31:34;98306.16;;;11.75;100.00
39897;BME280;25567;48.276;14.242;2022-09-09T05:34:01;98305.69;;;11.78;100.00
39897;BME280;25567;48.276;14.242;2022-09-09T05:36:27;98313.03;;;11.88;100.00
39897;BME280;25567;48.276;14.242;2022-09-09T05:38:54;98295.78;;;11.90;100.00
39897;BME280;25567;48.276;14.242;2022-09-09T05:41:21;98291.34;;;11.79;100.00
39897;BME280;25567;48.276;14.242;2022-09-09T05:43:49;98295.06;;;11.78;100.00
39897;BME280;25567;48.276;14.242;2022-09-09T05:46:18;98294.81;;;11.79;100.00
39897;BME280;25567;48.276;14.242;2022-09-09T05:48:47;98300.53;;;11.88;100.00
39897;BME280;25567;48.276;14.242;2022-09-09T05:51:16;98295.28;;;11.93;100.00
39897;BME280;25567;48.276;14.242;2022-09-09T05:53:44;98284.06;;;12.03;100.00
39897;BME280;25567;48.276;14.242;2022-09-09T05:56:14;98280.13;;;12.06;100.00
39897;BME280;25567;48.276;14.242;2022-09-09T05:58:41;98270.88;;;12.08;100.00
39897;BME280;25567;48.276;14.242;2022-09-09T06:01:17;98280.03;;;12.17;100.00
39897;BME280;25567;48.276;14.242;2022-09-09T06:03:45;98268.09;;;12.20;100.00
39897;BME280;25567;48.276;14.242;2022-09-09T06:06:15;98264.47;;;12.26;100.00
39897;BME280;25567;48.276;14.242;2022-09-09T06:08:44;98266.41;;;12.31;100.00
39897;BME280;25567;48.276;14.242;2022-09-09T06:11:15;98265.97;;;12.39;100.00
39897;BME280;25567;48.276;14.242;2022-09-09T06:13:45;98264.44;;;12.43;100.00
39897;BME280;25567;48.276;14.242;2022-09-09T06:16:16;98260.56;;;12.51;100.00
39897;BME280;25567;48.276;14.242;2022-09-09T06:18:43;98256.97;;;12.62;100.00
39897;BME280;25567;48.276;14.242;2022-09-09T06:23:43;98259.25;;;12.76;100.00
39897;BME280;25567;48.276;14.242;2022-09-09T06:26:16;98262.50;;;12.78;100.00
39897;BME280;25567;48.276;14.242;2022-09-09T06:28:46;98268.41;;;12.85;100.00
39897;BME280;25567;48.276;14.242;2022-09-09T06:31:15;98273.09;;;12.95;100.00
39897;BME280;25567;48.276;14.242;2022-09-09T06:33:44;98272.22;;;12.89;100.00
39897;BME280;25567;48.276;14.242;2022-09-09T06:36:13;98276.19;;;12.87;100.00
39897;BME280;25567;48.276;14.242;2022-09-09T06:38:42;98268.81;;;12.94;100.00
39897;BME280;25567;48.276;14.242;2022-09-09T06:41:09;98261.81;;;12.88;100.00
39897;BME280;25567;48.276;14.242;2022-09-09T06:43:37;98267.50;;;12.96;100.00
39897;BME280;25567;48.276;14.242;2022-09-09T06:46:08;98277.25;;;13.13;100.00
39897;BME280;25567;48.276;14.242;2022-09-09T06:48:36;98285.75;;;13.10;100.00
39897;BME280;25567;48.276;14.242;2022-09-09T06:51:05;98285.81;;;13.15;100.00
39897;BME280;25567;48.276;14.242;2022-09-09T06:53:33;98276.78;;;13.16;100.00
39897;BME280;25567;48.276;14.242;2022-09-09T06:56:02;98277.13;;;13.25;100.00
39897;BME280;25567;48.276;14.242;2022-09-09T06:58:29;98268.16;;;13.31;100.00
39897;BME280;25567;48.276;14.242;2022-09-09T07:01:11;98269.50;;;13.33;100.00
39897;BME280;25567;48.276;14.242;2022-09-09T07:03:39;98269.03;;;13.64;100.00
39897;BME280;25567;48.276;14.242;2022-09-09T07:06:07;98275.56;;;13.78;100.00
39897;BME280;25567;48.276;14.242;2022-09-09T07:08:35;98281.81;;;13.94;100.00
39897;BME280;25567;48.276;14.242;2022-09-09T07:11:04;98294.06;;;13.90;100.00
39897;BME280;25567;48.276;14.242;2022-09-09T07:13:37;98284.28;;;14.01;100.00
39897;BME280;25567;48.276;14.242;2022-09-09T07:16:05;98285.22;;;13.90;100.00
39897;BME280;25567;48.276;14.242;2022-09-09T07:18:33;98284.22;;;13.96;100.00
39897;BME280;25567;48.276;14.242;2022-09-09T07:21:02;98287.09;;;13.89;100.00
39897;BME280;25567;48.276;14.242;2022-09-09T07:23:30;98292.19;;;13.91;100.00
39897;BME280;25567;48.276;14.242;2022-09-09T07:26:02;98289.00;;;13.94;100.00
39897;BME280;25567;48.276;14.242;2022-09-09T07:28:29;98273.25;;;13.92;100.00
39897;BME280;25567;48.276;14.242;2022-09-09T07:30:59;98272.16;;;13.88;100.00
39897;BME280;25567;48.276;14.242;2022-09-09T07:33:30;98273.09;;;14.04;100.00
39897;BME280;25567;48.276;14.242;2022-09-09T07:36:04;98280.41;;;14.19;100.00
39897;BME280;25567;48.276;14.242;2022-09-09T07:38:31;98275.53;;;14.11;100.00
39897;BME280;25567;48.276;14.242;2022-09-09T07:41:07;98275.06;;;14.19;100.00
39897;BME280;25567;48.276;14.242;2022-09-09T07:43:39;98274.81;;;14.21;100.00
39897;BME280;25567;48.276;14.242;2022-09-09T07:46:09;98273.25;;;14.25;100.00
39897;BME280;25567;48.276;14.242;2022-09-09T07:48:36;98270.84;;;14.23;100.00
39897;BME280;25567;48.276;14.242;2022-09-09T07:51:06;98275.13;;;14.29;100.00
39897;BME280;25567;48.276;14.242;2022-09-09T07:53:34;98288.00;;;14.38;100.00
39897;BME280;25567;48.276;14.242;2022-09-09T07:56:08;98294.13;;;14.38;100.00
39897;BME280;25567;48.276;14.242;2022-09-09T07:58:37;98299.72;;;14.37;100.00
39897;BME280;25567;48.276;14.242;2022-09-09T08:01:21;98289.06;;;14.37;100.00
39897;BME280;25567;48.276;14.242;2022-09-09T08:03:54;98305.16;;;14.47;100.00
39897;BME280;25567;48.276;14.242;2022-09-09T08:06:22;98294.16;;;14.43;100.00
39897;BME280;25567;48.276;14.242;2022-09-09T08:08:50;98301.63;;;14.41;100.00
39897;BME280;25567;48.276;14.242;2022-09-09T08:11:18;98302.69;;;14.45;100.00
39897;BME280;25567;48.276;14.242;2022-09-09T08:13:45;98307.38;;;14.65;100.00
39897;BME280;25567;48.276;14.242;2022-09-09T08:16:20;98303.50;;;14.83;100.00
39897;BME280;25567;48.276;14.242;2022-09-09T08:18:49;98301.13;;;14.92;100.00
39897;BME280;25567;48.276;14.242;2022-09-09T08:21:18;98299.50;;;14.86;100.00
39897;BME280;25567;48.276;14.242;2022-09-09T08:23:46;98300.56;;;14.85;100.00
39897;BME280;25567;48.276;14.242;2022-09-09T08:26:15;98314.97;;;14.79;100.00
39897;BME280;25567;48.276;14.242;2022-09-09T08:28:43;98312.84;;;14.86;100.00
39897;BME280;25567;48.276;14.242;2022-09-09T08:31:13;98324.31;;;14.87;100.00
39897;BME280;25567;48.276;14.242;2022-09-09T08:33:41;98327.88;;;14.97;100.00
39897;BME280;25567;48.276;14.242;2022-09-09T08:36:10;98325.94;;;14.88;100.00
39897;BME280;25567;48.276;14.242;2022-09-09T08:38:37;98321.63;;;14.76;100.00
39897;BME280;25567;48.276;14.242;2022-09-09T08:43:45;98325.09;;;14.82;100.00
39897;BME280;25567;48.276;14.242;2022-09-09T08:51:18;98324.09;;;14.88;100.00
39897;BME280;25567;48.276;14.242;2022-09-09T08:53:48;98310.19;;;14.86;100.00
39897;BME280;25567;48.276;14.242;2022-09-09T08:56:18;98317.19;;;14.97;100.00
39897;BME280;25567;48.276;14.242;2022-09-09T08:58:50;98309.66;;;14.89;100.00
39897;BME280;25567;48.276;14.242;2022-09-09T09:01:36;98312.09;;;14.91;100.00
39897;BME280;25567;48.276;14.242;2022-09-09T09:12:23;98313.63;;;14.87;100.00
39897;BME280;25567;48.276;14.242;2022-09-09T09:14:50;98311.69;;;14.72;100.00
39897;BME280;25567;48.276;14.242;2022-09-09T09:17:20;98311.72;;;14.77;100.00
39897;BME280;25567;48.276;14.242;2022-09-09T09:19:48;98310.69;;;14.83;100.00
39897;BME280;25567;48.276;14.242;2022-09-09T09:27:15;98331.56;;;14.91;100.00
39897;BME280;25567;48.276;14.242;2022-09-09T09:29:43;98332.56;;;14.80;100.00
39897;BME280;25567;48.276;14.242;2022-09-09T09:32:33;98324.84;;;14.83;100.00
39897;BME280;25567;48.276;14.242;2022-09-09T09:35:02;98326.38;;;14.69;100.00
39897;BME280;25567;48.276;14.242;2022-09-09T09:37:34;98324.94;;;14.61;100.00
39897;BME280;25567;48.276;14.242;2022-09-09T09:42:38;98327.97;;;14.70;100.00
39897;BME280;25567;48.276;14.242;2022-09-09T09:47:59;98324.53;;;14.70;100.00
39897;BME280;25567;48.276;14.242;2022-09-09T09:50:33;98313.81;;;14.64;100.00
39897;BME280;25567;48.276;14.242;2022-09-09T09:53:04;98307.97;;;14.73;100.00
39897;BME280;25567;48.276;14.242;2022-09-09T09:55:32;98309.63;;;14.84;100.00
39897;BME280;25567;48.276;14.242;2022-09-09T09:58:04;98312.38;;;15.05;100.00
39897;BME280;25567;48.276;14.242;2022-09-09T10:00:36;98314.25;;;14.99;100.00
39897;BME280;25567;48.276;14.242;2022-09-09T10:03:19;98310.22;;;14.96;100.00
39897;BME280;25567;48.276;14.242;2022-09-09T10:05:47;98309.94;;;14.93;100.00
39897;BME280;25567;48.276;14.242;2022-09-09T10:08:15;98307.25;;;14.88;100.00
39897;BME280;25567;48.276;14.242;2022-09-09T10:14:00;98312.28;;;14.84;100.00
39897;BME280;25567;48.276;14.242;2022-09-09T10:19:00;98310.97;;;14.87;100.00
39897;BME280;25567;48.276;14.242;2022-09-09T10:21:51;98305.91;;;14.90;100.00
39897;BME280;25567;48.276;14.242;2022-09-09T10:30:14;98314.50;;;14.97;100.00
39897;BME280;25567;48.276;14.242;2022-09-09T10:32:49;98312.16;;;15.11;100.00
39897;BME280;25567;48.276;14.242;2022-09-09T10:38:14;98305.81;;;15.38;100.00
39897;BME280;25567;48.276;14.242;2022-09-09T10:41:09;98299.16;;;15.41;100.00
39897;BME280;25567;48.276;14.242;2022-09-09T10:46:43;98302.88;;;15.40;100.00
39897;BME280;25567;48.276;14.242;2022-09-09T11:00:04;98307.44;;;15.39;100.00
39897;BME280;25567;48.276;14.242;2022-09-09T11:02:34;98320.00;;;15.39;100.00
39897;BME280;25567;48.276;14.242;2022-09-09T11:05:04;98314.38;;;15.40;100.00
39897;BME280;25567;48.276;14.242;2022-09-09T11:07:41;98317.81;;;15.30;100.00
39897;BME280;25567;48.276;14.242;2022-09-09T11:10:29;98325.81;;;15.30;100.00
39897;BME280;25567;48.276;14.242;2022-09-09T11:13:04;98319.63;;;15.14;100.00
39897;BME280;25567;48.276;14.242;2022-09-09T11:15:39;98323.97;;;15.26;100.00
39897;BME280;25567;48.276;14.242;2022-09-09T11:18:13;98328.22;;;15.22;100.00
39897;BME280;25567;48.276;14.242;2022-09-09T11:20:44;98330.09;;;15.26;100.00
39897;BME280;25567;48.276;14.242;2022-09-09T11:23:15;98336.00;;;15.28;100.00
39897;BME280;25567;48.276;14.242;2022-09-09T11:25:48;98329.00;;;15.22;100.00
39897;BME280;25567;48.276;14.242;2022-09-09T11:28:38;98329.00;;;15.22;100.00
39897;BME280;25567;48.276;14.242;2022-09-09T11:34:06;98316.22;;;15.24;100.00
39897;BME280;25567;48.276;14.242;2022-09-09T11:36:50;98313.56;;;15.29;100.00
39897;BME280;25567;48.276;14.242;2022-09-09T11:39:38;98317.56;;;15.32;100.00
39897;BME280;25567;48.276;14.242;2022-09-09T11:42:22;98307.44;;;15.39;100.00
39897;BME280;25567;48.276;14.242;2022-09-09T11:44:51;98310.88;;;15.40;100.00
39897;BME280;25567;48.276;14.242;2022-09-09T11:49:52;98312.56;;;15.56;100.00
39897;BME280;25567;48.276;14.242;2022-09-09T11:52:34;98325.13;;;15.56;100.00
39897;BME280;25567;48.276;14.242;2022-09-09T11:55:24;98325.69;;;15.78;100.00
39897;BME280;25567;48.276;14.242;2022-09-09T11:58:01;98328.09;;;15.75;100.00
39897;BME280;25567;48.276;14.242;2022-09-09T12:00:38;98333.72;;;15.78;100.00
39897;BME280;25567;48.276;14.242;2022-09-09T12:06:19;98329.19;;;15.84;100.00
39897;BME280;25567;48.276;14.242;2022-09-09T12:08:55;98342.03;;;15.92;100.00
39897;BME280;25567;48.276;14.242;2022-09-09T12:11:27;98334.56;;;15.84;100.00
39897;BME280;25567;48.276;14.242;2022-09-09T12:13:56;98332.41;;;16.01;100.00
39897;BME280;25567;48.276;14.242;2022-09-09T12:19:14;98321.44;;;15.98;100.00
39897;BME280;25567;48.276;14.242;2022-09-09T12:21:57;98325.44;;;16.00;100.00
39897;BME280;25567;48.276;14.242;2022-09-09T12:24:35;98328.69;;;16.08;100.00
39897;BME280;25567;48.276;14.242;2022-09-09T12:27:20;98323.59;;;16.06;100.00
39897;BME280;25567;48.276;14.242;2022-09-09T12:29:54;98318.50;;;16.05;100.00
39897;BME280;25567;48.276;14.242;2022-09-09T12:32:25;98312.34;;;15.94;100.00
39897;BME280;25567;48.276;14.242;2022-09-09T12:34:54;98307.53;;;15.91;100.00
39897;BME280;25567;48.276;14.242;2022-09-09T12:42:33;98304.06;;;15.95;100.00
39897;BME280;25567;48.276;14.242;2022-09-09T12:45:19;98303.78;;;15.81;100.00
39897;BME280;25567;48.276;14.242;2022-09-09T12:47:49;98307.81;;;15.84;100.00
39897;BME280;25567;48.276;14.242;2022-09-09T12:52:45;98309.94;;;16.03;100.00
39897;BME280;25567;48.276;14.242;2022-09-09T12:55:18;98306.19;;;16.14;100.00
39897;BME280;25567;48.276;14.242;2022-09-09T12:57:49;98297.66;;;16.12;100.00
39897;BME280;25567;48.276;14.242;2022-09-09T13:00:18;98297.09;;;16.20;100.00
39897;BME280;25567;48.276;14.242;2022-09-09T13:02:56;98305.91;;;16.21;100.00
39897;BME280;25567;48.276;14.242;2022-09-09T13:05:27;98306.47;;;16.17;100.00
39897;BME280;25567;48.276;14.242;2022-09-09T13:08:04;98318.22;;;16.27;100.00
39897;BME280;25567;48.276;14.242;2022-09-09T13:10:35;98315.84;;;16.20;100.00
39897;BME280;25567;48.276;14.242;2022-09-09T13:13:26;98309.41;;;16.26;100.00
39897;BME280;25567;48.276;14.242;2022-09-09T13:15:56;98306.19;;;16.14;100.00
39897;BME280;25567;48.276;14.242;2022-09-09T13:18:30;98308.91;;;16.04;100.00
39897;BME280;25567;48.276;14.242;2022-09-09T13:20:58;98306.19;;;15.88;100.00
39897;BME280;25567;48.276;14.242;2022-09-09T13:23:28;98305.94;;;15.90;100.00
39897;BME280;25567;48.276;14.242;2022-09-09T13:25:58;98312.63;;;15.87;100.00
39897;BME280;25567;48.276;14.242;2022-09-09T13:28:27;98303.00;;;16.07;100.00
39897;BME280;25567;48.276;14.242;2022-09-09T13:31:02;98293.34;;;16.16;100.00
39897;BME280;25567;48.276;14.242;2022-09-09T13:33:33;98290.69;;;16.06;100.00
39897;BME280;25567;48.276;14.242;2022-09-09T13:36:05;98283.19;;;15.97;100.00
39897;BME280;25567;48.276;14.242;2022-09-09T13:38:36;98285.34;;;16.00;100.00
39897;BME280;25567;48.276;14.242;2022-09-09T13:41:06;98267.69;;;15.99;100.00
39897;BME280;25567;48.276;14.242;2022-09-09T13:46:20;98268.22;;;16.12;100.00
39897;BME280;25567;48.276;14.242;2022-09-09T13:48:58;98268.22;;;16.07;100.00
39897;BME280;25567;48.276;14.242;2022-09-09T13:51:35;98271.69;;;16.12;100.00
39897;BME280;25567;48.276;14.242;2022-09-09T13:54:05;98270.38;;;15.99;100.00
39897;BME280;25567;48.276;14.242;2022-09-09T13:56:33;98278.41;;;15.99;100.00
39897;BME280;25567;48.276;14.242;2022-09-09T13:59:03;98284.28;;;16.17;100.00
39897;BME280;25567;48.276;14.242;2022-09-09T14:01:31;98279.47;;;16.04;100.00
39897;BME280;25567;48.276;14.242;2022-09-09T14:03:57;98277.59;;;16.09;100.00
39897;BME280;25567;48.276;14.242;2022-09-09T14:06:25;98274.13;;;16.04;100.00
39897;BME280;25567;48.276;14.242;2022-09-09T14:08:52;98280.25;;;16.04;100.00
39897;BME280;25567;48.276;14.242;2022-09-09T14:11:21;98284.53;;;16.00;100.00
39897;BME280;25567;48.276;14.242;2022-09-09T14:13:49;98276.25;;;16.01;100.00
39897;BME280;25567;48.276;14.242;2022-09-09T14:16:20;98284.25;;;15.96;100.00
39897;BME280;25567;48.276;14.242;2022-09-09T14:18:48;98285.34;;;16.16;100.00
39897;BME280;25567;48.276;14.242;2022-09-09T14:21:14;98283.22;;;16.08;100.00
39897;BME280;25567;48.276;14.242;2022-09-09T14:23:41;98278.38;;;16.05;100.00
39897;BME280;25567;48.276;14.242;2022-09-09T14:26:11;98265.81;;;16.00;100.00
39897;BME280;25567;48.276;14.242;2022-09-09T14:28:39;98265.28;;;16.03;100.00
39897;BME280;25567;48.276;14.242;2022-09-09T14:31:23;98259.34;;;16.27;100.00
39897;BME280;25567;48.276;14.242;2022-09-09T14:33:50;98256.97;;;16.15;100.00
39897;BME280;25567;48.276;14.242;2022-09-09T14:36:17;98258.06;;;16.09;100.00
39897;BME280;25567;48.276;14.242;2022-09-09T14:38:44;98254.84;;;16.12;100.00
39897;BME280;25567;48.276;14.242;2022-09-09T14:41:14;98252.16;;;16.07;100.00
39897;BME280;25567;48.276;14.242;2022-09-09T14:43:44;98246.81;;;16.01;100.00
39897;BME280;25567;48.276;14.242;2022-09-09T14:46:13;98241.47;;;16.17;100.00
39897;BME280;25567;48.276;14.242;2022-09-09T14:48:40;98248.16;;;16.20;100.00